sensor_id;sensor_type;location;lat;lon;timestamp;pressure;altitude;pressure_sealevel;temperature;humidity
72428;BME280;60419;48.880;18.036;2023-07-20T00:01:47;98378.31;;;21.45;60.28
72428;BME280;60419;48.880;18.036;2023-07-20T00:04:33;98383.34;;;21.75;59.30
72428;BME280;60419;48.880;18.036;2023-07-20T00:07:18;98371.56;;;21.78;59.30
72428;BME280;60419;48.880;18.036;2023-07-20T00:10:04;98376.31;;;20.77;62.48
72428;BME280;60419;48.880;18.036;2023-07-20T00:12:49;98375.06;;;19.62;65.77
72428;BME280;60419;48.880;18.036;2023-07-20T00:15:35;98363.97;;;20.17;64.44
72428;BME280;60419;48.880;18.036;2023-07-20T00:18:20;98370.44;;;20.72;62.38
72428;BME280;60419;48.880;18.036;2023-07-20T00:21:06;98361.03;;;20.94;61.15
72428;BME280;60419;48.880;18.036;2023-07-20T00:23:51;98355.94;;;21.39;60.08
72428;BME280;60419;48.880;18.036;2023-07-20T00:26:37;98352.41;;;21.49;59.37
72428;BME280;60419;48.880;18.036;2023-07-20T00:29:22;98349.22;;;20.54;62.21
72428;BME280;60419;48.880;18.036;2023-07-20T00:32:07;98346.88;;;20.63;62.37
72428;BME280;60419;48.880;18.036;2023-07-20T00:34:53;98341.00;;;20.69;62.34
72428;BME280;60419;48.880;18.036;2023-07-20T00:37:38;98341.81;;;20.87;61.55
72428;BME280;60419;48.880;18.036;2023-07-20T00:40:24;98339.47;;;21.28;59.80
72428;BME280;60419;48.880;18.036;2023-07-20T00:43:09;98346.06;;;20.45;64.16
72428;BME280;60419;48.880;18.036;2023-07-20T00:45:55;98346.44;;;19.56;68.00
72428;BME280;60419;48.880;18.036;2023-07-20T00:48:41;98346.41;;;20.36;65.45
72428;BME280;60419;48.880;18.036;2023-07-20T00:51:27;98337.09;;;20.66;63.87
72428;BME280;60419;48.880;18.036;2023-07-20T00:54:14;98348.88;;;20.99;62.71
72428;BME280;60419;48.880;18.036;2023-07-20T00:57:01;98336.66;;;20.46;63.73
72428;BME280;60419;48.880;18.036;2023-07-20T00:59:46;98333.66;;;19.85;66.08
72428;BME280;60419;48.880;18.036;2023-07-20T01:02:31;98342.25;;;19.80;65.82
72428;BME280;60419;48.880;18.036;2023-07-20T01:05:17;98348.44;;;19.07;68.14
72428;BME280;60419;48.880;18.036;2023-07-20T01:08:09;98339.44;;;19.62;67.64
72428;BME280;60419;48.880;18.036;2023-07-20T01:11:00;98329.00;;;19.93;65.85
72428;BME280;60419;48.880;18.036;2023-07-20T01:13:50;98329.84;;;20.04;65.18
72428;BME280;60419;48.880;18.036;2023-07-20T01:16:35;98342.91;;;19.56;66.80
72428;BME280;60419;48.880;18.036;2023-07-20T01:19:20;98327.16;;;20.18;64.45
72428;BME280;60419;48.880;18.036;2023-07-20T01:22:12;98334.94;;;20.06;65.77
72428;BME280;60419;48.880;18.036;2023-07-20T01:31:28;98338.69;;;19.65;65.67
72428;BME280;60419;48.880;18.036;2023-07-20T01:34:17;98362.22;;;19.77;65.49
72428;BME280;60419;48.880;18.036;2023-07-20T01:37:03;98364.16;;;19.73;65.53
72428;BME280;60419;48.880;18.036;2023-07-20T01:39:51;98370.41;;;19.18;67.82
72428;BME280;60419;48.880;18.036;2023-07-20T01:42:44;98378.44;;;19.45;66.71
72428;BME280;60419;48.880;18.036;2023-07-20T01:45:30;98368.25;;;19.42;66.87
72428;BME280;60419;48.880;18.036;2023-07-20T01:48:15;98349.66;;;19.72;65.38
72428;BME280;60419;48.880;18.036;2023-07-20T01:51:01;98356.31;;;19.20;67.46
72428;BME280;60419;48.880;18.036;2023-07-20T01:53:46;98345.56;;;19.48;66.50
72428;BME280;60419;48.880;18.036;2023-07-20T01:56:32;98356.41;;;19.30;67.36
72428;BME280;60419;48.880;18.036;2023-07-20T01:59:17;98362.56;;;18.72;69.26
72428;BME280;60419;48.880;18.036;2023-07-20T02:02:03;98359.41;;;19.11;68.01
72428;BME280;60419;48.880;18.036;2023-07-20T02:04:48;98347.94;;;18.98;67.57
72428;BME280;60419;48.880;18.036;2023-07-20T02:07:34;98352.22;;;18.96;67.81
72428;BME280;60419;48.880;18.036;2023-07-20T02:10:19;98359.66;;;19.47;66.29
72428;BME280;60419;48.880;18.036;2023-07-20T02:13:05;98362.56;;;19.68;64.70
72428;BME280;60419;48.880;18.036;2023-07-20T02:15:50;98364.63;;;19.30;66.28
72428;BME280;60419;48.880;18.036;2023-07-20T02:18:36;98369.41;;;18.93;67.51
72428;BME280;60419;48.880;18.036;2023-07-20T02:21:22;98377.38;;;19.12;67.44
72428;BME280;60419;48.880;18.036;2023-07-20T02:24:07;98384.66;;;19.42;66.46
72428;BME280;60419;48.880;18.036;2023-07-20T02:26:53;98392.13;;;19.45;65.51
72428;BME280;60419;48.880;18.036;2023-07-20T02:29:40;98404.50;;;19.80;64.77
72428;BME280;60419;48.880;18.036;2023-07-20T02:32:26;98415.09;;;19.85;64.41
72428;BME280;60419;48.880;18.036;2023-07-20T02:35:11;98406.75;;;19.63;64.71
72428;BME280;60419;48.880;18.036;2023-07-20T02:37:57;98410.88;;;19.39;65.96
72428;BME280;60419;48.880;18.036;2023-07-20T02:40:42;98416.53;;;19.16;67.19
72428;BME280;60419;48.880;18.036;2023-07-20T02:43:28;98419.28;;;19.64;65.68
72428;BME280;60419;48.880;18.036;2023-07-20T02:46:13;98419.75;;;19.73;65.24
72428;BME280;60419;48.880;18.036;2023-07-20T02:48:59;98416.69;;;19.34;66.96
72428;BME280;60419;48.880;18.036;2023-07-20T02:51:44;98424.38;;;19.62;65.59
72428;BME280;60419;48.880;18.036;2023-07-20T02:54:30;98437.22;;;19.10;67.72
72428;BME280;60419;48.880;18.036;2023-07-20T02:57:15;98421.81;;;18.95;66.91
72428;BME280;60419;48.880;18.036;2023-07-20T03:00:02;98426.22;;;19.06;66.50
72428;BME280;60419;48.880;18.036;2023-07-20T03:02:49;98414.06;;;19.00;66.92
72428;BME280;60419;48.880;18.036;2023-07-20T03:05:40;98430.66;;;19.22;66.00
72428;BME280;60419;48.880;18.036;2023-07-20T03:08:26;98428.88;;;18.99;66.86
72428;BME280;60419;48.880;18.036;2023-07-20T03:11:11;98434.34;;;19.40;65.44
72428;BME280;60419;48.880;18.036;2023-07-20T03:13:56;98438.44;;;19.64;64.87
72428;BME280;60419;48.880;18.036;2023-07-20T03:16:42;98438.78;;;20.14;63.49
72428;BME280;60419;48.880;18.036;2023-07-20T03:19:27;98435.22;;;19.07;66.88
72428;BME280;60419;48.880;18.036;2023-07-20T03:22:13;98441.94;;;19.13;66.90
72428;BME280;60419;48.880;18.036;2023-07-20T03:24:58;98440.13;;;19.31;66.77
72428;BME280;60419;48.880;18.036;2023-07-20T03:27:44;98440.84;;;19.25;66.90
72428;BME280;60419;48.880;18.036;2023-07-20T03:30:29;98436.75;;;19.04;67.81
72428;BME280;60419;48.880;18.036;2023-07-20T03:33:14;98436.47;;;19.17;67.51
72428;BME280;60419;48.880;18.036;2023-07-20T03:36:00;98451.09;;;19.31;66.75
72428;BME280;60419;48.880;18.036;2023-07-20T03:38:46;98448.41;;;19.90;64.77
72428;BME280;60419;48.880;18.036;2023-07-20T03:41:31;98458.34;;;20.16;63.89
72428;BME280;60419;48.880;18.036;2023-07-20T03:44:17;98465.47;;;20.28;63.51
72428;BME280;60419;48.880;18.036;2023-07-20T03:47:03;98464.31;;;20.33;64.00
72428;BME280;60419;48.880;18.036;2023-07-20T03:49:49;98467.50;;;20.38;63.41
72428;BME280;60419;48.880;18.036;2023-07-20T03:52:35;98458.25;;;20.79;62.27
72428;BME280;60419;48.880;18.036;2023-07-20T03:55:20;98471.53;;;20.66;62.59
72428;BME280;60419;48.880;18.036;2023-07-20T03:58:06;98480.22;;;20.06;64.16
72428;BME280;60419;48.880;18.036;2023-07-20T04:00:52;98483.38;;;20.08;64.04
72428;BME280;60419;48.880;18.036;2023-07-20T04:03:37;98494.16;;;19.83;65.28
72428;BME280;60419;48.880;18.036;2023-07-20T04:06:23;98498.78;;;19.71;65.85
72428;BME280;60419;48.880;18.036;2023-07-20T04:09:08;98491.72;;;19.26;68.19
72428;BME280;60419;48.880;18.036;2023-07-20T04:11:53;98497.72;;;19.39;67.44
72428;BME280;60419;48.880;18.036;2023-07-20T04:14:39;98506.72;;;19.87;65.91
72428;BME280;60419;48.880;18.036;2023-07-20T04:17:24;98496.59;;;19.95;65.00
72428;BME280;60419;48.880;18.036;2023-07-20T04:20:10;98502.47;;;20.59;63.21
72428;BME280;60419;48.880;18.036;2023-07-20T04:22:55;98514.75;;;20.91;61.88
72428;BME280;60419;48.880;18.036;2023-07-20T04:25:41;98506.72;;;20.46;63.71
72428;BME280;60419;48.880;18.036;2023-07-20T04:28:26;98519.00;;;20.74;62.42
72428;BME280;60419;48.880;18.036;2023-07-20T04:31:13;98517.09;;;20.85;61.76
72428;BME280;60419;48.880;18.036;2023-07-20T04:33:58;98521.38;;;20.75;62.70
72428;BME280;60419;48.880;18.036;2023-07-20T04:36:44;98521.09;;;21.16;61.68
72428;BME280;60419;48.880;18.036;2023-07-20T04:39:29;98529.41;;;21.63;60.13
72428;BME280;60419;48.880;18.036;2023-07-20T04:42:15;98525.06;;;22.30;58.10
72428;BME280;60419;48.880;18.036;2023-07-20T04:45:01;98515.16;;;22.65;56.55
72428;BME280;60419;48.880;18.036;2023-07-20T04:47:47;98519.22;;;23.23;54.73
72428;BME280;60419;48.880;18.036;2023-07-20T04:50:32;98521.53;;;23.28;54.56
72428;BME280;60419;48.880;18.036;2023-07-20T04:53:17;98521.81;;;23.52;54.10
72428;BME280;60419;48.880;18.036;2023-07-20T04:56:03;98516.41;;;23.86;53.17
72428;BME280;60419;48.880;18.036;2023-07-20T04:58:48;98514.50;;;24.24;51.86
72428;BME280;60419;48.880;18.036;2023-07-20T05:01:34;98515.66;;;23.82;52.54
72428;BME280;60419;48.880;18.036;2023-07-20T05:04:19;98512.81;;;23.37;54.31
72428;BME280;60419;48.880;18.036;2023-07-20T05:07:04;98507.19;;;23.58;53.65
72428;BME280;60419;48.880;18.036;2023-07-20T05:09:50;98509.25;;;23.40;53.91
72428;BME280;60419;48.880;18.036;2023-07-20T05:12:36;98503.88;;;23.78;52.90
72428;BME280;60419;48.880;18.036;2023-07-20T05:15:21;98507.16;;;23.62;53.42
72428;BME280;60419;48.880;18.036;2023-07-20T05:18:06;98501.56;;;23.73;52.31
72428;BME280;60419;48.880;18.036;2023-07-20T05:20:53;98512.28;;;24.08;51.69
72428;BME280;60419;48.880;18.036;2023-07-20T05:23:40;98517.28;;;24.21;51.58
72428;BME280;60419;48.880;18.036;2023-07-20T05:26:25;98511.72;;;23.83;53.00
72428;BME280;60419;48.880;18.036;2023-07-20T05:29:10;98517.28;;;23.79;52.82
72428;BME280;60419;48.880;18.036;2023-07-20T05:31:56;98519.78;;;24.04;52.04
72428;BME280;60419;48.880;18.036;2023-07-20T05:34:41;98516.41;;;23.86;52.72
72428;BME280;60419;48.880;18.036;2023-07-20T05:37:27;98517.72;;;24.16;51.98
72428;BME280;60419;48.880;18.036;2023-07-20T05:40:13;98516.84;;;24.26;51.16
72428;BME280;60419;48.880;18.036;2023-07-20T05:42:59;98501.03;;;24.30;51.10
72428;BME280;60419;48.880;18.036;2023-07-20T05:45:45;98507.88;;;24.15;51.38
72428;BME280;60419;48.880;18.036;2023-07-20T05:48:32;98495.69;;;23.67;52.66
72428;BME280;60419;48.880;18.036;2023-07-20T05:51:18;98506.44;;;23.99;52.32
72428;BME280;60419;48.880;18.036;2023-07-20T05:54:04;98501.47;;;24.63;50.79
72428;BME280;60419;48.880;18.036;2023-07-20T05:56:49;98506.47;;;24.37;50.40
72428;BME280;60419;48.880;18.036;2023-07-20T05:59:34;98506.56;;;24.30;49.67
72428;BME280;60419;48.880;18.036;2023-07-20T06:02:20;98514.84;;;23.85;49.95
72428;BME280;60419;48.880;18.036;2023-07-20T06:05:07;98497.31;;;23.01;50.93
72428;BME280;60419;48.880;18.036;2023-07-20T06:07:55;98522.09;;;23.64;50.30
72428;BME280;60419;48.880;18.036;2023-07-20T06:10:42;98525.44;;;23.38;49.39
72428;BME280;60419;48.880;18.036;2023-07-20T06:13:28;98531.53;;;23.04;49.96
72428;BME280;60419;48.880;18.036;2023-07-20T06:16:13;98531.44;;;23.22;50.07
72428;BME280;60419;48.880;18.036;2023-07-20T06:19:00;98532.63;;;23.17;50.36
72428;BME280;60419;48.880;18.036;2023-07-20T06:21:45;98529.81;;;23.28;50.23
72428;BME280;60419;48.880;18.036;2023-07-20T06:24:30;98544.16;;;22.94;50.34
72428;BME280;60419;48.880;18.036;2023-07-20T06:27:16;98530.56;;;22.37;51.55
72428;BME280;60419;48.880;18.036;2023-07-20T06:30:01;98531.28;;;22.59;51.00
72428;BME280;60419;48.880;18.036;2023-07-20T06:32:47;98533.41;;;23.18;50.09
72428;BME280;60419;48.880;18.036;2023-07-20T06:35:34;98526.44;;;22.99;50.62
72428;BME280;60419;48.880;18.036;2023-07-20T06:38:20;98524.53;;;22.89;51.18
72428;BME280;60419;48.880;18.036;2023-07-20T06:41:05;98526.75;;;23.71;49.15
72428;BME280;60419;48.880;18.036;2023-07-20T06:43:51;98518.91;;;23.10;49.79
72428;BME280;60419;48.880;18.036;2023-07-20T06:46:37;98525.34;;;23.52;49.22
72428;BME280;60419;48.880;18.036;2023-07-20T06:49:26;98515.47;;;23.55;48.26
72428;BME280;60419;48.880;18.036;2023-07-20T06:52:12;98534.16;;;23.26;49.46
72428;BME280;60419;48.880;18.036;2023-07-20T06:54:57;98528.28;;;23.16;49.87
72428;BME280;60419;48.880;18.036;2023-07-20T06:57:43;98541.97;;;23.34;49.14
72428;BME280;60419;48.880;18.036;2023-07-20T07:00:28;98536.09;;;23.84;47.61
72428;BME280;60419;48.880;18.036;2023-07-20T07:03:13;98531.06;;;23.76;48.42
72428;BME280;60419;48.880;18.036;2023-07-20T07:05:59;98525.16;;;23.74;47.65
72428;BME280;60419;48.880;18.036;2023-07-20T07:08:45;98539.72;;;24.23;46.76
72428;BME280;60419;48.880;18.036;2023-07-20T07:11:30;98539.22;;;23.34;48.87
72428;BME280;60419;48.880;18.036;2023-07-20T07:14:15;98523.28;;;23.67;47.55
72428;BME280;60419;48.880;18.036;2023-07-20T07:17:01;98546.88;;;23.72;47.77
72428;BME280;60419;48.880;18.036;2023-07-20T07:19:46;98541.56;;;23.36;47.82
72428;BME280;60419;48.880;18.036;2023-07-20T07:22:32;98536.28;;;23.63;47.34
72428;BME280;60419;48.880;18.036;2023-07-20T07:25:17;98531.56;;;23.63;46.68
72428;BME280;60419;48.880;18.036;2023-07-20T07:28:03;98520.09;;;23.68;45.28
72428;BME280;60419;48.880;18.036;2023-07-20T07:30:48;98518.50;;;24.20;45.00
72428;BME280;60419;48.880;18.036;2023-07-20T07:33:34;98524.09;;;22.94;48.86
72428;BME280;60419;48.880;18.036;2023-07-20T07:36:20;98539.16;;;23.49;47.63
72428;BME280;60419;48.880;18.036;2023-07-20T07:39:05;98527.44;;;23.86;47.43
72428;BME280;60419;48.880;18.036;2023-07-20T07:41:51;98529.56;;;24.16;44.71
72428;BME280;60419;48.880;18.036;2023-07-20T07:44:36;98536.34;;;24.04;45.01
72428;BME280;60419;48.880;18.036;2023-07-20T07:47:22;98535.22;;;23.98;44.87
72428;BME280;60419;48.880;18.036;2023-07-20T07:50:07;98537.81;;;24.20;44.69
72428;BME280;60419;48.880;18.036;2023-07-20T07:52:53;98542.53;;;24.57;43.64
72428;BME280;60419;48.880;18.036;2023-07-20T07:55:38;98561.06;;;24.57;43.33
72428;BME280;60419;48.880;18.036;2023-07-20T07:58:23;98544.03;;;23.79;43.22
72428;BME280;60419;48.880;18.036;2023-07-20T08:01:09;98552.16;;;23.97;42.21
72428;BME280;60419;48.880;18.036;2023-07-20T08:03:54;98549.34;;;24.04;41.63
72428;BME280;60419;48.880;18.036;2023-07-20T08:06:40;98552.53;;;23.99;41.97
72428;BME280;60419;48.880;18.036;2023-07-20T08:09:25;98549.34;;;24.04;41.68
72428;BME280;60419;48.880;18.036;2023-07-20T08:12:10;98562.00;;;24.43;41.21
72428;BME280;60419;48.880;18.036;2023-07-20T08:14:56;98563.28;;;24.35;40.97
72428;BME280;60419;48.880;18.036;2023-07-20T08:17:42;98560.19;;;24.29;41.76
72428;BME280;60419;48.880;18.036;2023-07-20T08:20:28;98554.63;;;23.87;42.31
72428;BME280;60419;48.880;18.036;2023-07-20T08:23:14;98561.50;;;24.10;42.42
72428;BME280;60419;48.880;18.036;2023-07-20T08:25:59;98563.41;;;24.20;41.90
72428;BME280;60419;48.880;18.036;2023-07-20T08:28:45;98560.81;;;23.99;41.99
72428;BME280;60419;48.880;18.036;2023-07-20T08:31:33;98576.84;;;24.15;42.40
72428;BME280;60419;48.880;18.036;2023-07-20T08:34:18;98577.88;;;24.35;42.43
72428;BME280;60419;48.880;18.036;2023-07-20T08:37:04;98570.44;;;25.01;41.23
72428;BME280;60419;48.880;18.036;2023-07-20T08:39:49;98586.69;;;24.61;41.32
72428;BME280;60419;48.880;18.036;2023-07-20T08:42:35;98574.63;;;24.44;42.31
72428;BME280;60419;48.880;18.036;2023-07-20T08:45:23;98570.97;;;24.54;41.76
72428;BME280;60419;48.880;18.036;2023-07-20T08:48:11;98563.63;;;24.40;42.44
72428;BME280;60419;48.880;18.036;2023-07-20T08:50:57;98569.16;;;24.74;41.97
72428;BME280;60419;48.880;18.036;2023-07-20T08:53:45;98566.78;;;24.39;42.85
72428;BME280;60419;48.880;18.036;2023-07-20T08:56:33;98571.31;;;24.18;43.42
72428;BME280;60419;48.880;18.036;2023-07-20T08:59:19;98570.38;;;24.36;42.94
72428;BME280;60419;48.880;18.036;2023-07-20T09:02:08;98574.28;;;24.38;41.68
72428;BME280;60419;48.880;18.036;2023-07-20T09:04:57;98571.25;;;24.25;42.03
72428;BME280;60419;48.880;18.036;2023-07-20T09:07:43;98570.41;;;24.32;42.84
72428;BME280;60419;48.880;18.036;2023-07-20T09:10:28;98561.84;;;24.57;42.89
72428;BME280;60419;48.880;18.036;2023-07-20T09:13:15;98563.53;;;24.06;42.96
72428;BME280;60419;48.880;18.036;2023-07-20T09:16:01;98566.88;;;23.83;43.63
72428;BME280;60419;48.880;18.036;2023-07-20T09:18:48;98559.03;;;23.78;42.92
72428;BME280;60419;48.880;18.036;2023-07-20T09:21:34;98575.47;;;23.88;40.84
72428;BME280;60419;48.880;18.036;2023-07-20T09:24:20;98569.31;;;23.70;41.44
72428;BME280;60419;48.880;18.036;2023-07-20T09:27:06;98572.78;;;24.30;40.75
72428;BME280;60419;48.880;18.036;2023-07-20T09:29:52;98573.88;;;24.40;40.40
72428;BME280;60419;48.880;18.036;2023-07-20T09:32:45;98566.09;;;24.27;39.99
72428;BME280;60419;48.880;18.036;2023-07-20T09:35:31;98571.28;;;24.60;38.65
72428;BME280;60419;48.880;18.036;2023-07-20T09:38:17;98567.09;;;24.03;39.61
72428;BME280;60419;48.880;18.036;2023-07-20T09:41:05;98576.25;;;24.38;38.82
72428;BME280;60419;48.880;18.036;2023-07-20T09:43:50;98566.16;;;24.20;39.30
72428;BME280;60419;48.880;18.036;2023-07-20T09:46:47;98574.78;;;24.26;39.11
72428;BME280;60419;48.880;18.036;2023-07-20T09:49:32;98565.88;;;24.49;38.65
72428;BME280;60419;48.880;18.036;2023-07-20T09:52:18;98579.56;;;24.63;38.26
72428;BME280;60419;48.880;18.036;2023-07-20T09:55:06;98586.69;;;24.57;38.63
72428;BME280;60419;48.880;18.036;2023-07-20T09:57:53;98578.13;;;24.48;38.82
72428;BME280;60419;48.880;18.036;2023-07-20T10:00:40;98593.91;;;24.47;37.76
72428;BME280;60419;48.880;18.036;2023-07-20T10:03:29;98602.03;;;24.62;38.20
72428;BME280;60419;48.880;18.036;2023-07-20T10:06:18;98586.03;;;24.84;38.33
72428;BME280;60419;48.880;18.036;2023-07-20T10:09:06;98582.50;;;24.45;37.85
72428;BME280;60419;48.880;18.036;2023-07-20T10:11:53;98574.84;;;24.60;37.65
72428;BME280;60419;48.880;18.036;2023-07-20T10:14:41;98585.13;;;24.56;38.21
72428;BME280;60419;48.880;18.036;2023-07-20T10:17:30;98581.34;;;24.43;38.59
72428;BME280;60419;48.880;18.036;2023-07-20T10:20:16;98589.03;;;25.27;37.98
72428;BME280;60419;48.880;18.036;2023-07-20T10:23:02;98574.19;;;24.83;38.29
72428;BME280;60419;48.880;18.036;2023-07-20T10:25:48;98586.38;;;24.06;38.19
72428;BME280;60419;48.880;18.036;2023-07-20T10:28:36;98586.19;;;24.69;38.34
72428;BME280;60419;48.880;18.036;2023-07-20T10:31:22;98573.97;;;24.67;38.23
72428;BME280;60419;48.880;18.036;2023-07-20T10:34:08;98577.06;;;24.72;37.10
72428;BME280;60419;48.880;18.036;2023-07-20T10:36:54;98573.59;;;24.65;37.55
72428;BME280;60419;48.880;18.036;2023-07-20T10:39:39;98562.06;;;25.08;36.49
72428;BME280;60419;48.880;18.036;2023-07-20T10:42:32;98563.25;;;25.07;36.29
72428;BME280;60419;48.880;18.036;2023-07-20T10:45:18;98572.31;;;24.73;36.32
72428;BME280;60419;48.880;18.036;2023-07-20T10:48:23;98577.94;;;24.66;37.09
72428;BME280;60419;48.880;18.036;2023-07-20T10:51:13;98573.59;;;25.03;35.80
72428;BME280;60419;48.880;18.036;2023-07-20T10:54:02;98581.66;;;24.48;37.49
72428;BME280;60419;48.880;18.036;2023-07-20T10:56:47;98583.53;;;24.59;37.67
72428;BME280;60419;48.880;18.036;2023-07-20T11:02:19;98590.28;;;24.54;38.24
72428;BME280;60419;48.880;18.036;2023-07-20T11:05:05;98580.66;;;24.31;38.48
72428;BME280;60419;48.880;18.036;2023-07-20T11:07:50;98592.88;;;24.30;38.24
72428;BME280;60419;48.880;18.036;2023-07-20T11:10:36;98595.75;;;24.61;37.83
72428;BME280;60419;48.880;18.036;2023-07-20T11:13:23;98594.41;;;24.35;38.12
72428;BME280;60419;48.880;18.036;2023-07-20T11:16:08;98591.16;;;24.85;37.44
72428;BME280;60419;48.880;18.036;2023-07-20T11:18:55;98579.06;;;25.06;37.32
72428;BME280;60419;48.880;18.036;2023-07-20T11:21:42;98582.25;;;25.05;36.62
72428;BME280;60419;48.880;18.036;2023-07-20T11:24:27;98577.50;;;25.05;37.17
72428;BME280;60419;48.880;18.036;2023-07-20T11:27:13;98564.88;;;25.04;36.70
72428;BME280;60419;48.880;18.036;2023-07-20T11:29:58;98562.75;;;25.15;36.64
72428;BME280;60419;48.880;18.036;2023-07-20T11:32:49;98560.56;;;25.30;36.63
72428;BME280;60419;48.880;18.036;2023-07-20T11:35:41;98563.41;;;25.27;36.38
72428;BME280;60419;48.880;18.036;2023-07-20T11:38:27;98561.44;;;25.81;35.67
72428;BME280;60419;48.880;18.036;2023-07-20T11:41:12;98565.06;;;25.48;35.71
72428;BME280;60419;48.880;18.036;2023-07-20T11:43:58;98565.25;;;25.06;36.30
72428;BME280;60419;48.880;18.036;2023-07-20T11:46:44;98554.94;;;25.10;36.49
72428;BME280;60419;48.880;18.036;2023-07-20T11:49:36;98555.00;;;25.88;36.18
72428;BME280;60419;48.880;18.036;2023-07-20T11:52:25;98558.25;;;26.06;35.68
72428;BME280;60419;48.880;18.036;2023-07-20T11:55:11;98542.72;;;25.66;35.76
72428;BME280;60419;48.880;18.036;2023-07-20T11:58:04;98548.25;;;26.13;35.13
72428;BME280;60419;48.880;18.036;2023-07-20T12:00:50;98541.66;;;25.83;35.70
72428;BME280;60419;48.880;18.036;2023-07-20T12:03:36;98548.81;;;26.04;35.04
72428;BME280;60419;48.880;18.036;2023-07-20T12:06:23;98517.63;;;26.23;35.14
72428;BME280;60419;48.880;18.036;2023-07-20T12:09:13;98533.75;;;25.81;36.31
72428;BME280;60419;48.880;18.036;2023-07-20T12:12:09;98543.75;;;25.75;35.62
72428;BME280;60419;48.880;18.036;2023-07-20T12:14:55;98544.06;;;25.81;35.31
72428;BME280;60419;48.880;18.036;2023-07-20T12:17:58;98532.63;;;25.79;35.70
72428;BME280;60419;48.880;18.036;2023-07-20T12:20:44;98528.34;;;25.98;35.27
72428;BME280;60419;48.880;18.036;2023-07-20T12:23:35;98531.31;;;26.94;34.10
72428;BME280;60419;48.880;18.036;2023-07-20T12:26:22;98520.09;;;27.18;33.28
72428;BME280;60419;48.880;18.036;2023-07-20T12:29:09;98516.97;;;25.92;36.01
72428;BME280;60419;48.880;18.036;2023-07-20T12:31:54;98521.47;;;25.82;35.67
72428;BME280;60419;48.880;18.036;2023-07-20T12:34:39;98513.16;;;26.06;35.34
72428;BME280;60419;48.880;18.036;2023-07-20T12:37:25;98513.78;;;25.43;36.69
72428;BME280;60419;48.880;18.036;2023-07-20T12:40:11;98513.34;;;26.62;35.38
72428;BME280;60419;48.880;18.036;2023-07-20T12:42:57;98503.25;;;27.77;34.96
72428;BME280;60419;48.880;18.036;2023-07-20T12:45:43;98506.81;;;28.11;33.34
72428;BME280;60419;48.880;18.036;2023-07-20T12:48:28;98511.63;;;27.25;34.43
72428;BME280;60419;48.880;18.036;2023-07-20T12:51:14;98513.38;;;27.35;33.30
72428;BME280;60419;48.880;18.036;2023-07-20T12:53:59;98501.91;;;27.17;33.39
72428;BME280;60419;48.880;18.036;2023-07-20T12:56:44;98493.56;;;27.53;33.09
72428;BME280;60419;48.880;18.036;2023-07-20T12:59:30;98492.50;;;27.30;33.32
72428;BME280;60419;48.880;18.036;2023-07-20T13:02:15;98502.28;;;27.19;32.42
72428;BME280;60419;48.880;18.036;2023-07-20T13:05:00;98494.75;;;27.35;32.80
72428;BME280;60419;48.880;18.036;2023-07-20T13:07:46;98502.69;;;26.81;33.24
72428;BME280;60419;48.880;18.036;2023-07-20T13:10:32;98502.63;;;26.24;34.21
72428;BME280;60419;48.880;18.036;2023-07-20T13:13:17;98506.97;;;26.45;33.62
72428;BME280;60419;48.880;18.036;2023-07-20T13:16:03;98503.53;;;26.38;34.49
72428;BME280;60419;48.880;18.036;2023-07-20T13:18:48;98516.75;;;25.83;36.73
72428;BME280;60419;48.880;18.036;2023-07-20T13:21:33;98530.44;;;25.39;39.29
72428;BME280;60419;48.880;18.036;2023-07-20T13:24:19;98548.78;;;24.23;44.39
72428;BME280;60419;48.880;18.036;2023-07-20T13:27:04;98555.06;;;23.19;48.80
72428;BME280;60419;48.880;18.036;2023-07-20T13:29:50;98567.03;;;22.80;50.86
72428;BME280;60419;48.880;18.036;2023-07-20T13:32:35;98582.81;;;22.48;52.58
72428;BME280;60419;48.880;18.036;2023-07-20T13:35:21;98596.97;;;22.50;53.19
72428;BME280;60419;48.880;18.036;2023-07-20T13:38:06;98605.59;;;22.59;54.38
72428;BME280;60419;48.880;18.036;2023-07-20T13:40:52;98623.72;;;22.06;57.39
72428;BME280;60419;48.880;18.036;2023-07-20T13:43:37;98627.66;;;22.27;55.09
72428;BME280;60419;48.880;18.036;2023-07-20T13:46:23;98619.34;;;22.59;58.58
72428;BME280;60419;48.880;18.036;2023-07-20T13:49:08;98632.38;;;22.26;58.00
72428;BME280;60419;48.880;18.036;2023-07-20T13:51:54;98642.94;;;22.71;58.76
72428;BME280;60419;48.880;18.036;2023-07-20T13:54:40;98641.00;;;22.46;58.65
72428;BME280;60419;48.880;18.036;2023-07-20T13:57:25;98626.47;;;22.13;58.49
72428;BME280;60419;48.880;18.036;2023-07-20T14:00:11;98620.16;;;22.56;63.21
72428;BME280;60419;48.880;18.036;2023-07-20T14:02:57;98619.00;;;22.39;63.51
72428;BME280;60419;48.880;18.036;2023-07-20T14:05:42;98620.03;;;21.27;64.98
72428;BME280;60419;48.880;18.036;2023-07-20T14:08:28;98624.03;;;20.67;66.75
72428;BME280;60419;48.880;18.036;2023-07-20T14:11:15;98616.38;;;21.01;67.71
72428;BME280;60419;48.880;18.036;2023-07-20T14:14:01;98618.56;;;20.71;69.24
72428;BME280;60419;48.880;18.036;2023-07-20T14:16:46;98610.84;;;20.94;75.02
72428;BME280;60419;48.880;18.036;2023-07-20T14:19:31;98610.72;;;21.85;68.13
72428;BME280;60419;48.880;18.036;2023-07-20T14:22:17;98606.41;;;22.59;66.85
72428;BME280;60419;48.880;18.036;2023-07-20T14:25:02;98609.41;;;23.01;59.78
72428;BME280;60419;48.880;18.036;2023-07-20T14:27:48;98607.28;;;23.44;55.90
72428;BME280;60419;48.880;18.036;2023-07-20T14:30:33;98605.00;;;23.92;52.57
72428;BME280;60419;48.880;18.036;2023-07-20T14:33:19;98609.91;;;23.66;47.36
72428;BME280;60419;48.880;18.036;2023-07-20T14:36:04;98547.81;;;23.99;48.40
72428;BME280;60419;48.880;18.036;2023-07-20T14:38:50;98602.47;;;24.57;46.35